Time;durP1;ratioP1;P1;durP2;ratioP2;P2;SDS_P1;SDS_P2;PMS_P1;PMS_P2;Temp;Humidity;BMP_temperature;BMP_pressure;BME280_temperature;BME280_humidity;BME280_pressure;Samples;Min_cycle;Max_cycle;Signal;HPM_P1;HPM_P2
2022/04/05 00:02:25;;;;;;;0.43;0.43;;;;;;;;;;4981154;28;20031;-78
2022/04/05 00:04:51;;;;;;;2.95;1.65;;;;;;;;;;4983681;28;20862;-78
2022/04/05 00:07:18;;;;;;;0.10;0.10;;;;;;;;;;4983614;28;20057;-78
2022/04/05 00:09:44;;;;;;;0.90;0.90;;;;;;;;;;4982278;28;20038;-81
2022/04/05 00:12:10;;;;;;;0.52;0.52;;;;;;;;;;4980674;28;20037;-80
2022/04/05 00:14:36;;;;;;;14.50;1.47;;;;;;;;;;4981237;28;20127;-80
2022/04/05 00:17:05;;;;;;;0.03;0.03;;;;;;;;;;4981780;28;20031;-80
2022/04/05 00:19:31;;;;;;;0.47;0.47;;;;;;;;;;4982080;28;20030;-80
2022/04/05 00:21:57;;;;;;;0.30;0.30;;;;;;;;;;4983380;28;20414;-80
2022/04/05 00:24:23;;;;;;;1.08;0.88;;;;;;;;;;4983769;28;20030;-80
2022/04/05 00:26:49;;;;;;;6.90;1.65;;;;;;;;;;4983177;28;20037;-79
2022/04/05 00:29:15;;;;;;;0.20;0.20;;;;;;;;;;4980501;28;20092;-79
2022/04/05 00:31:41;;;;;;;0.10;0.10;;;;;;;;;;4982272;28;20030;-79
2022/04/05 00:34:08;;;;;;;0.10;0.10;;;;;;;;;;4981904;28;20062;-79
2022/04/05 00:36:34;;;;;;;0.57;0.57;;;;;;;;;;4980259;28;20038;-79
2022/04/05 00:39:00;;;;;;;0.10;0.10;;;;;;;;;;4979886;28;20026;-79
2022/04/05 00:41:26;;;;;;;0.32;0.32;;;;;;;;;;4981417;28;20057;-79
2022/04/05 00:43:52;;;;;;;0.10;0.10;;;;;;;;;;4981380;28;20060;-80
2022/04/05 00:46:18;;;;;;;0.10;0.10;;;;;;;;;;4981013;28;20113;-80
2022/04/05 00:48:49;;;;;;;0.33;0.33;;;;;;;;;;4983466;28;20049;-80
2022/04/05 00:51:16;;;;;;;0.10;0.10;;;;;;;;;;4982947;28;20033;-80
2022/04/05 00:53:43;;;;;;;0.30;0.30;;;;;;;;;;4982127;28;20550;-80
2022/04/05 00:56:09;;;;;;;0.57;0.57;;;;;;;;;;4980574;28;20027;-80
2022/04/05 00:58:36;;;;;;;0.10;0.10;;;;;;;;;;4982561;28;20053;-80
2022/04/05 01:01:02;;;;;;;0.10;0.10;;;;;;;;;;4982684;28;20157;-81
2022/04/05 01:03:28;;;;;;;0.30;0.30;;;;;;;;;;4983718;28;20034;-80
2022/04/05 01:05:55;;;;;;;1.07;1.07;;;;;;;;;;4981327;28;20040;-81
2022/04/05 01:08:22;;;;;;;0.17;0.17;;;;;;;;;;4981797;28;20722;-80
2022/04/05 01:10:49;;;;;;;1.88;0.57;;;;;;;;;;4979664;28;20034;-80
2022/04/05 01:13:15;;;;;;;0.45;0.45;;;;;;;;;;4981553;28;20031;-79
2022/04/05 01:15:41;;;;;;;0.27;0.27;;;;;;;;;;4981063;28;20410;-83
2022/04/05 01:18:07;;;;;;;0.10;0.10;;;;;;;;;;4981734;28;20030;-82
2022/04/05 01:20:33;;;;;;;0.50;0.50;;;;;;;;;;4981895;28;20093;-82
2022/04/05 01:22:59;;;;;;;0.50;0.50;;;;;;;;;;4980987;28;20486;-81
2022/04/05 01:25:25;;;;;;;0.90;0.88;;;;;;;;;;4980338;28;20053;-80
2022/04/05 01:27:53;;;;;;;0.87;0.87;;;;;;;;;;4984284;28;20065;-82
2022/04/05 01:30:18;;;;;;;;;;;;;;;;;;4985835;28;20483;-81
2022/04/05 01:32:45;;;;;;;0.10;0.10;;;;;;;;;;4984245;28;19913;-81
2022/04/05 01:35:11;;;;;;;0.60;0.45;;;;;;;;;;4983847;28;20297;-81
2022/04/05 01:37:37;;;;;;;0.43;0.43;;;;;;;;;;4984302;28;20023;-79
2022/04/05 01:40:03;;;;;;;0.20;0.20;;;;;;;;;;4986177;28;20125;-79
2022/04/05 01:42:30;;;;;;;0.40;0.40;;;;;;;;;;4986531;28;20046;-79
2022/04/05 01:44:56;;;;;;;0.10;0.10;;;;;;;;;;4984826;28;20045;-79
2022/04/05 01:47:22;;;;;;;0.10;0.10;;;;;;;;;;4985941;28;20097;-79
2022/04/05 01:49:49;;;;;;;0.30;0.30;;;;;;;;;;4986102;28;20803;-78
2022/04/05 01:52:15;;;;;;;0.88;0.52;;;;;;;;;;4984901;28;20069;-79
2022/04/05 01:54:41;;;;;;;0.83;0.83;;;;;;;;;;4986923;28;20073;-79
2022/04/05 01:57:07;;;;;;;1.02;1.02;;;;;;;;;;4984323;28;20561;-79
2022/04/05 01:59:34;;;;;;;0.10;0.10;;;;;;;;;;4985065;28;20493;-78
2022/04/05 02:02:00;;;;;;;;;;;;;;;;;;4985547;28;20181;-79
2022/04/05 02:04:26;;;;;;;0.10;0.10;;;;;;;;;;4986042;28;20049;-80
2022/04/05 02:06:52;;;;;;;0.30;0.30;;;;;;;;;;4985505;28;20876;-85
2022/04/05 02:09:18;;;;;;;0.20;0.20;;;;;;;;;;4985365;28;20050;-79
2022/04/05 02:11:46;;;;;;;1.48;1.38;;;;;;;;;;4984212;28;20089;-79
2022/04/05 02:14:13;;;;;;;0.50;0.50;;;;;;;;;;4984573;28;20560;-79
2022/04/05 02:16:39;;;;;;;0.20;0.20;;;;;;;;;;4984448;28;20116;-79
2022/04/05 02:19:06;;;;;;;0.05;0.05;;;;;;;;;;4985222;28;20053;-79
2022/04/05 02:21:32;;;;;;;0.30;0.30;;;;;;;;;;4986642;28;20062;-79
2022/04/05 02:23:58;;;;;;;0.20;0.20;;;;;;;;;;4985325;28;20033;-79
2022/04/05 02:26:24;;;;;;;0.20;0.20;;;;;;;;;;4982916;28;20122;-79
2022/04/05 02:28:50;;;;;;;0.10;0.10;;;;;;;;;;4982724;28;20080;-80
2022/04/05 02:31:17;;;;;;;0.30;0.30;;;;;;;;;;4985353;28;20034;-83
2022/04/05 02:33:43;;;;;;;0.10;0.10;;;;;;;;;;4985979;28;20042;-84
2022/04/05 02:36:09;;;;;;;0.50;0.50;;;;;;;;;;4982845;28;20038;-81
2022/04/05 02:38:36;;;;;;;0.10;0.10;;;;;;;;;;4985300;28;20312;-81
2022/04/05 02:41:05;;;;;;;0.38;0.38;;;;;;;;;;4982696;28;20033;-82
2022/04/05 02:43:31;;;;;;;0.82;0.82;;;;;;;;;;4982017;28;20058;-82
2022/04/05 02:45:58;;;;;;;0.35;0.32;;;;;;;;;;4985768;28;20058;-81
2022/04/05 02:48:24;;;;;;;1.25;0.65;;;;;;;;;;4984261;28;20065;-81
2022/04/05 02:50:50;;;;;;;0.10;0.10;;;;;;;;;;4984895;28;20026;-82
2022/04/05 02:53:16;;;;;;;0.10;0.10;;;;;;;;;;4984960;28;20038;-81
2022/04/05 02:55:42;;;;;;;0.40;0.40;;;;;;;;;;4984989;28;20030;-83
2022/04/05 02:58:08;;;;;;;0.43;0.40;;;;;;;;;;4984985;28;20023;-82
2022/04/05 03:00:35;;;;;;;0.15;0.15;;;;;;;;;;4985157;28;20035;-81
2022/04/05 03:03:02;;;;;;;0.20;0.20;;;;;;;;;;4984171;28;20042;-82
2022/04/05 03:05:28;;;;;;;0.10;0.10;;;;;;;;;;4983178;28;20030;-81
2022/04/05 03:07:55;;;;;;;1.88;1.45;;;;;;;;;;4983959;28;20038;-80
2022/04/05 03:10:21;;;;;;;1.90;1.40;;;;;;;;;;4983781;28;20046;-78
2022/04/05 03:12:47;;;;;;;0.70;0.70;;;;;;;;;;4984948;28;20018;-79
2022/04/05 03:15:13;;;;;;;0.22;0.22;;;;;;;;;;4984153;28;20285;-79
2022/04/05 03:17:46;;;;;;;0.40;0.40;;;;;;;;;;4980466;28;20077;-78
2022/04/05 03:20:13;;;;;;;0.30;0.30;;;;;;;;;;4982934;28;20038;-77
2022/04/05 03:22:42;;;;;;;1.27;1.23;;;;;;;;;;4981776;28;20074;-78
2022/04/05 03:25:10;;;;;;;0.20;0.20;;;;;;;;;;4983875;28;20038;-78
2022/04/05 03:27:43;;;;;;;0.20;0.20;;;;;;;;;;4983289;28;20030;-79
2022/04/05 03:30:10;;;;;;;0.20;0.20;;;;;;;;;;4980654;28;20046;-77
2022/04/05 03:32:36;;;;;;;;;;;;;;;;;;4981956;28;20023;-77
2022/04/05 03:35:02;;;;;;;0.20;0.20;;;;;;;;;;4983275;28;19968;-77
2022/04/05 03:37:28;;;;;;;0.20;0.20;;;;;;;;;;5015100;28;20270;-77
2022/04/05 03:39:54;;;;;;;0.10;0.10;;;;;;;;;;4984682;28;20786;-78
2022/04/05 03:42:21;;;;;;;0.17;0.17;;;;;;;;;;4981749;28;20449;-79
2022/04/05 03:44:47;;;;;;;0.20;0.20;;;;;;;;;;4981741;28;20042;-78
2022/04/05 03:47:13;;;;;;;0.10;0.10;;;;;;;;;;4983206;28;20031;-80
2022/04/05 03:49:39;;;;;;;0.10;0.10;;;;;;;;;;4983004;28;20065;-80
2022/04/05 03:52:05;;;;;;;0.55;0.55;;;;;;;;;;4982157;28;20122;-78
2022/04/05 03:54:31;;;;;;;0.77;0.77;;;;;;;;;;4984092;28;20070;-79
2022/04/05 03:56:57;;;;;;;1.23;1.17;;;;;;;;;;4983645;28;20054;-78
2022/04/05 03:59:23;;;;;;;0.20;0.20;;;;;;;;;;4982957;28;20061;-79
2022/04/05 04:01:49;;;;;;;0.10;0.10;;;;;;;;;;4982673;28;20031;-78
2022/04/05 04:04:15;;;;;;;1.00;0.75;;;;;;;;;;4981961;28;20096;-78
2022/04/05 04:06:42;;;;;;;0.10;0.10;;;;;;;;;;4981744;28;20039;-79
2022/04/05 04:09:08;;;;;;;0.20;0.20;;;;;;;;;;4982052;28;20053;-79
2022/04/05 04:11:34;;;;;;;0.52;0.50;;;;;;;;;;4982844;28;20022;-80
2022/04/05 04:14:00;;;;;;;0.35;0.35;;;;;;;;;;4983496;28;20045;-79
2022/04/05 04:16:26;;;;;;;0.22;0.22;;;;;;;;;;4982909;28;20110;-79
2022/04/05 04:18:52;;;;;;;0.57;0.57;;;;;;;;;;4983673;28;20038;-79
2022/04/05 04:21:18;;;;;;;0.57;0.57;;;;;;;;;;4981777;28;20034;-79
2022/04/05 04:23:44;;;;;;;0.20;0.20;;;;;;;;;;4981228;28;20034;-79
2022/04/05 04:26:10;;;;;;;0.43;0.43;;;;;;;;;;4980851;28;20026;-79
2022/04/05 04:28:36;;;;;;;0.10;0.10;;;;;;;;;;5005473;28;20031;-81
2022/04/05 04:31:03;;;;;;;1.20;0.60;;;;;;;;;;4982541;28;20034;-80
2022/04/05 04:33:29;;;;;;;1.97;0.47;;;;;;;;;;4983378;28;20030;-77
2022/04/05 04:35:55;;;;;;;0.20;0.20;;;;;;;;;;4981000;28;20119;-79
2022/04/05 04:38:21;;;;;;;0.10;0.10;;;;;;;;;;4965174;28;20117;-79
2022/04/05 04:40:47;;;;;;;0.25;0.25;;;;;;;;;;4981547;28;20493;-78
2022/04/05 04:43:17;;;;;;;0.20;0.20;;;;;;;;;;4981450;28;20505;-81
2022/04/05 04:45:44;;;;;;;0.10;0.10;;;;;;;;;;4983335;28;20050;-83
2022/04/05 04:48:10;;;;;;;0.10;0.10;;;;;;;;;;4980502;28;20415;-82
2022/04/05 04:50:36;;;;;;;0.43;0.43;;;;;;;;;;4980971;28;20042;-82
2022/04/05 04:53:02;;;;;;;0.20;0.20;;;;;;;;;;4982822;28;20304;-87
2022/04/05 04:55:28;;;;;;;0.10;0.10;;;;;;;;;;4983115;28;20123;-88
2022/04/05 04:57:56;;;;;;;0.30;0.30;;;;;;;;;;5006445;28;20034;-88
2022/04/05 05:00:22;;;;;;;0.50;0.38;;;;;;;;;;4980131;28;20356;-86
2022/04/05 05:02:48;;;;;;;0.30;0.30;;;;;;;;;;4973083;28;20030;-86
2022/04/05 05:05:18;;;;;;;0.38;0.38;;;;;;;;;;4985933;28;20057;-85
2022/04/05 05:07:44;;;;;;;0.10;0.10;;;;;;;;;;4986626;28;20054;-86
2022/04/05 05:10:11;;;;;;;0.10;0.10;;;;;;;;;;4985563;28;20044;-85
2022/04/05 05:12:40;;;;;;;0.10;0.10;;;;;;;;;;4985363;28;20019;-82
2022/04/05 05:15:08;;;;;;;0.13;0.13;;;;;;;;;;4982405;28;20038;-83
2022/04/05 05:17:34;;;;;;;0.20;0.20;;;;;;;;;;4983004;28;20027;-86
2022/04/05 05:20:00;;;;;;;0.10;0.10;;;;;;;;;;4985841;28;20030;-83
2022/04/05 05:22:26;;;;;;;0.10;0.10;;;;;;;;;;4986119;28;20049;-83
2022/04/05 05:24:52;;;;;;;2.25;0.98;;;;;;;;;;4987383;28;20110;-85
2022/04/05 05:27:18;;;;;;;0.10;0.10;;;;;;;;;;4984049;28;20459;-84
2022/04/05 05:29:44;;;;;;;0.47;0.47;;;;;;;;;;4984735;28;20602;-82
2022/04/05 05:32:10;;;;;;;1.50;1.40;;;;;;;;;;4985383;28;20030;-83
2022/04/05 05:34:36;;;;;;;0.20;0.20;;;;;;;;;;4979348;28;20257;-82
2022/04/05 05:37:04;;;;;;;0.10;0.10;;;;;;;;;;4985724;28;20061;-82
2022/04/05 05:39:30;;;;;;;0.57;0.57;;;;;;;;;;4984213;28;20034;-82
2022/04/05 05:41:56;;;;;;;0.25;0.25;;;;;;;;;;4983325;28;20034;-85
2022/04/05 05:44:23;;;;;;;0.10;0.10;;;;;;;;;;4984309;28;20050;-84
2022/04/05 05:46:49;;;;;;;0.20;0.20;;;;;;;;;;4984208;28;20277;-85
2022/04/05 05:49:15;;;;;;;0.20;0.20;;;;;;;;;;4982482;28;20049;-89
2022/04/05 05:51:41;;;;;;;0.47;0.47;;;;;;;;;;4984786;28;20070;-85
2022/04/05 05:54:07;;;;;;;0.52;0.52;;;;;;;;;;4984710;28;20041;-87
2022/04/05 05:56:33;;;;;;;0.17;0.17;;;;;;;;;;4986348;28;20034;-88
2022/04/05 05:59:00;;;;;;;0.20;0.20;;;;;;;;;;4981597;28;20037;-87
2022/04/05 06:01:26;;;;;;;0.10;0.10;;;;;;;;;;4980987;28;20109;-88
2022/04/05 06:03:52;;;;;;;0.20;0.20;;;;;;;;;;4987938;28;20282;-82
2022/04/05 06:06:18;;;;;;;0.10;0.10;;;;;;;;;;4983569;28;20042;-84
2022/04/05 06:08:44;;;;;;;0.22;0.22;;;;;;;;;;4984333;28;20065;-83
2022/04/05 06:11:10;;;;;;;0.73;0.73;;;;;;;;;;4984098;28;20530;-85
2022/04/05 06:13:37;;;;;;;0.08;0.08;;;;;;;;;;4985955;28;20364;-84
2022/04/05 06:16:03;;;;;;;0.32;0.32;;;;;;;;;;4985938;28;20042;-84
2022/04/05 06:18:29;;;;;;;0.28;0.28;;;;;;;;;;4985111;28;20030;-85
2022/04/05 06:20:55;;;;;;;0.10;0.10;;;;;;;;;;4983669;28;20057;-86
2022/04/05 06:23:21;;;;;;;0.20;0.20;;;;;;;;;;4984573;28;20727;-84
2022/04/05 06:25:47;;;;;;;0.63;0.63;;;;;;;;;;4986748;28;20449;-84
2022/04/05 06:28:15;;;;;;;0.63;0.63;;;;;;;;;;4986400;28;20050;-85
2022/04/05 06:30:41;;;;;;;0.05;0.05;;;;;;;;;;4986200;28;20034;-84
2022/04/05 06:33:09;;;;;;;0.10;0.10;;;;;;;;;;4981226;28;20031;-84
2022/04/05 06:35:39;;;;;;;0.00;0.00;;;;;;;;;;4985297;28;20022;-85
2022/04/05 06:38:06;;;;;;;0.28;0.25;;;;;;;;;;4975101;28;20018;-85
2022/04/05 06:40:32;;;;;;;0.45;0.45;;;;;;;;;;4984303;28;20042;-85
2022/04/05 06:42:58;;;;;;;0.43;0.43;;;;;;;;;;4986876;28;20520;-85
2022/04/05 06:45:24;;;;;;;0.25;0.25;;;;;;;;;;4986780;28;20101;-85
2022/04/05 06:47:50;;;;;;;0.30;0.30;;;;;;;;;;4984926;28;20042;-85
2022/04/05 06:50:24;;;;;;;0.17;0.17;;;;;;;;;;4983044;28;20042;-85
2022/04/05 06:52:51;;;;;;;2.63;1.13;;;;;;;;;;4984074;28;20101;-85
2022/04/05 06:55:17;;;;;;;0.68;0.68;;;;;;;;;;4984530;28;20040;-85
2022/04/05 06:57:43;;;;;;;0.00;0.00;;;;;;;;;;4978249;28;20090;-85
2022/04/05 07:00:10;;;;;;;0.10;0.10;;;;;;;;;;4982378;28;20030;-86
2022/04/05 07:02:36;;;;;;;0.17;0.17;;;;;;;;;;4984238;28;20026;-85
2022/04/05 07:05:03;;;;;;;0.20;0.20;;;;;;;;;;4984279;28;20037;-84
2022/04/05 07:07:29;;;;;;;0.22;0.22;;;;;;;;;;4984625;28;20031;-82
2022/04/05 07:09:55;;;;;;;0.50;0.50;;;;;;;;;;4986675;28;20046;-81
2022/04/05 07:12:23;;;;;;;0.82;0.82;;;;;;;;;;4984876;28;20433;-81
2022/04/05 07:14:49;;;;;;;0.40;0.40;;;;;;;;;;4983328;28;20452;-82
2022/04/05 07:17:15;;;;;;;0.00;0.00;;;;;;;;;;4984910;28;20398;-81
2022/04/05 07:19:41;;;;;;;0.22;0.22;;;;;;;;;;4982983;28;20825;-82
2022/04/05 07:22:07;;;;;;;0.00;0.00;;;;;;;;;;4984735;28;20130;-82
2022/04/05 07:24:33;;;;;;;0.10;0.10;;;;;;;;;;4983848;28;20037;-81
2022/04/05 07:27:00;;;;;;;0.00;0.00;;;;;;;;;;4983382;28;20038;-82
2022/04/05 07:29:26;;;;;;;0.20;0.20;;;;;;;;;;4982625;28;20038;-81
2022/04/05 07:31:52;;;;;;;0.73;0.73;;;;;;;;;;4983115;28;20101;-81
2022/04/05 07:34:18;;;;;;;0.15;0.10;;;;;;;;;;4982367;28;20046;-81
2022/04/05 07:36:44;;;;;;;0.80;0.80;;;;;;;;;;4985529;28;20023;-82
2022/04/05 07:39:10;;;;;;;0.15;0.15;;;;;;;;;;4982583;28;20070;-81
2022/04/05 07:41:36;;;;;;;0.38;0.38;;;;;;;;;;4982996;28;20076;-81
2022/04/05 07:44:03;;;;;;;0.10;0.10;;;;;;;;;;4985475;28;20086;-81
2022/04/05 07:46:29;;;;;;;0.00;0.00;;;;;;;;;;4982517;28;20030;-81
2022/04/05 07:48:55;;;;;;;0.35;0.35;;;;;;;;;;4985878;28;20042;-82
2022/04/05 07:51:21;;;;;;;0.20;0.20;;;;;;;;;;4978484;28;20573;-82
2022/04/05 07:53:47;;;;;;;0.73;0.35;;;;;;;;;;5013745;28;20576;-82
2022/04/05 07:56:14;;;;;;;0.43;0.43;;;;;;;;;;4982332;28;20042;-81
2022/04/05 07:58:42;;;;;;;0.20;0.20;;;;;;;;;;4982174;28;20573;-82
2022/04/05 08:01:09;;;;;;;0.38;0.38;;;;;;;;;;4984052;28;20038;-81
2022/04/05 08:03:35;;;;;;;0.90;0.55;;;;;;;;;;4983307;28;20518;-81
2022/04/05 08:06:01;;;;;;;0.40;0.40;;;;;;;;;;4977940;28;20042;-81
2022/04/05 08:08:29;;;;;;;0.30;0.28;;;;;;;;;;4983689;28;20506;-82
2022/04/05 08:10:55;;;;;;;0.15;0.15;;;;;;;;;;4982350;28;20117;-82
2022/04/05 08:13:21;;;;;;;0.45;0.45;;;;;;;;;;4982973;28;20544;-81
2022/04/05 08:15:47;;;;;;;0.30;0.30;;;;;;;;;;4985011;28;20038;-81
2022/04/05 08:18:13;;;;;;;0.30;0.30;;;;;;;;;;4981990;28;20344;-82
2022/04/05 08:20:41;;;;;;;0.10;0.10;;;;;;;;;;4983392;28;20034;-82
2022/04/05 08:23:08;;;;;;;0.10;0.10;;;;;;;;;;4983481;28;20281;-82
2022/04/05 08:25:34;;;;;;;;;;;;;;;;;;4982324;28;20030;-82
2022/04/05 08:28:00;;;;;;;2.75;0.52;;;;;;;;;;4982993;28;20447;-82
2022/04/05 08:30:26;;;;;;;0.32;0.32;;;;;;;;;;4982358;28;20034;-81
2022/04/05 08:32:52;;;;;;;1.98;0.65;;;;;;;;;;4981801;28;20117;-82
2022/04/05 08:35:19;;;;;;;0.83;0.83;;;;;;;;;;4982100;28;20104;-82
2022/04/05 08:37:45;;;;;;;0.20;0.20;;;;;;;;;;4980663;28;20522;-82
2022/04/05 08:40:15;;;;;;;0.10;0.10;;;;;;;;;;4982233;28;20030;-81
2022/04/05 08:42:42;;;;;;;0.32;0.32;;;;;;;;;;4984722;28;20102;-82
2022/04/05 08:45:10;;;;;;;0.52;0.43;;;;;;;;;;4983024;28;20042;-82
2022/04/05 08:47:38;;;;;;;0.63;0.60;;;;;;;;;;4981734;28;20045;-82
2022/04/05 08:50:05;;;;;;;0.40;0.40;;;;;;;;;;4983025;28;20051;-82
2022/04/05 08:52:31;;;;;;;0.50;0.50;;;;;;;;;;4983432;28;20041;-82
2022/04/05 08:54:57;;;;;;;7.57;1.02;;;;;;;;;;4984346;28;20091;-82
2022/04/05 08:57:23;;;;;;;0.05;0.05;;;;;;;;;;4982175;28;20077;-82
2022/04/05 08:59:49;;;;;;;0.17;0.17;;;;;;;;;;5012262;28;20041;-82
2022/04/05 09:02:23;;;;;;;0.68;0.68;;;;;;;;;;4981422;28;20057;-82
2022/04/05 09:04:50;;;;;;;0.30;0.30;;;;;;;;;;4981438;28;20022;-82
2022/04/05 09:07:19;;;;;;;1.40;1.03;;;;;;;;;;4982860;28;20077;-82
2022/04/05 09:09:45;;;;;;;0.25;0.25;;;;;;;;;;4984542;28;20049;-82
2022/04/05 09:12:17;;;;;;;0.17;0.17;;;;;;;;;;4981312;28;20026;-82
2022/04/05 09:14:43;;;;;;;0.08;0.08;;;;;;;;;;4983340;28;20050;-82
2022/04/05 09:17:12;;;;;;;0.30;0.30;;;;;;;;;;4981162;28;20026;-82
2022/04/05 09:19:41;;;;;;;0.73;0.73;;;;;;;;;;4981042;28;21109;-81
2022/04/05 09:22:07;;;;;;;1.05;0.95;;;;;;;;;;4982648;28;20525;-82
2022/04/05 09:24:34;;;;;;;0.47;0.47;;;;;;;;;;4984117;28;20066;-82
2022/04/05 09:27:00;;;;;;;0.30;0.30;;;;;;;;;;4981297;28;20807;-82
2022/04/05 09:29:38;;;;;;;0.55;0.55;;;;;;;;;;4980853;28;20662;-82
2022/04/05 09:32:04;;;;;;;1.13;1.08;;;;;;;;;;4981454;28;20042;-82
2022/04/05 09:34:30;;;;;;;0.25;0.25;;;;;;;;;;4981036;28;20235;-82
2022/04/05 09:36:56;;;;;;;0.33;0.33;;;;;;;;;;4984195;28;20050;-82
2022/04/05 09:39:23;;;;;;;0.43;0.43;;;;;;;;;;4982896;28;20162;-82
2022/04/05 09:42:00;;;;;;;0.40;0.40;;;;;;;;;;4980606;28;20038;-82
2022/04/05 09:44:26;;;;;;;;;;;;;;;;;;4981240;28;20198;-82
2022/04/05 09:47:01;;;;;;;0.55;0.55;;;;;;;;;;4981097;28;19960;-82
2022/04/05 09:49:32;;;;;;;1.13;1.13;;;;;;;;;;4967527;28;20121;-82
2022/04/05 09:51:57;;;;;;;0.88;0.50;;;;;;;;;;4987560;28;20031;-82
2022/04/05 09:54:27;;;;;;;0.67;0.67;;;;;;;;;;4984921;28;20065;-82
2022/04/05 09:57:06;;;;;;;0.43;0.43;;;;;;;;;;4984050;28;20054;-82
2022/04/05 09:59:37;;;;;;;0.88;0.65;;;;;;;;;;4983972;28;20117;-82
2022/04/05 10:02:14;;;;;;;0.20;0.20;;;;;;;;;;4984192;28;20037;-82
2022/04/05 10:04:40;;;;;;;;;;;;;;;;;;4984657;28;20442;-82
2022/04/05 10:07:06;;;;;;;0.63;0.63;;;;;;;;;;4984812;28;19910;-83
2022/04/05 10:09:32;;;;;;;0.40;0.40;;;;;;;;;;4985988;28;20787;-86
2022/04/05 10:11:59;;;;;;;1.05;0.77;;;;;;;;;;4986722;28;20062;-85
2022/04/05 10:14:26;;;;;;;0.20;0.20;;;;;;;;;;4985810;28;20053;-86
2022/04/05 10:16:52;;;;;;;0.88;0.88;;;;;;;;;;4987661;28;20557;-86
2022/04/05 10:19:22;;;;;;;1.98;0.57;;;;;;;;;;4986458;28;20513;-86
2022/04/05 10:21:48;;;;;;;0.40;0.40;;;;;;;;;;4987602;28;20030;-86
2022/04/05 10:24:14;;;;;;;0.55;0.55;;;;;;;;;;4989702;28;20026;-86
2022/04/05 10:26:41;;;;;;;0.20;0.20;;;;;;;;;;4985660;28;20084;-86
2022/04/05 10:29:09;;;;;;;0.50;0.47;;;;;;;;;;4980936;28;20077;-87
2022/04/05 10:31:38;;;;;;;0.55;0.50;;;;;;;;;;4986334;28;20034;-85
2022/04/05 10:34:24;;;;;;;1.35;0.90;;;;;;;;;;4990203;28;20030;-88
2022/04/05 10:37:10;;;;;;;0.52;0.52;;;;;;;;;;4991812;28;20084;-86
2022/04/05 10:39:38;;;;;;;0.20;0.20;;;;;;;;;;4991977;28;20088;-86
2022/04/05 10:42:12;;;;;;;0.65;0.65;;;;;;;;;;4994934;28;20038;-86
2022/04/05 10:44:47;;;;;;;0.30;0.30;;;;;;;;;;4983724;28;20066;-87
2022/04/05 10:47:14;;;;;;;0.40;0.40;;;;;;;;;;5015239;28;20072;-86
2022/04/05 10:49:44;;;;;;;2.60;0.65;;;;;;;;;;4984271;28;20054;-87
2022/04/05 10:52:15;;;;;;;0.90;0.75;;;;;;;;;;4987581;28;20461;-87
2022/04/05 10:54:49;;;;;;;0.25;0.25;;;;;;;;;;4986195;28;20038;-87
2022/04/05 10:57:35;;;;;;;0.60;0.60;;;;;;;;;;4984442;28;20100;-87
2022/04/05 11:00:04;;;;;;;0.20;0.20;;;;;;;;;;4985744;28;20065;-87
2022/04/05 11:02:44;;;;;;;0.28;0.28;;;;;;;;;;4983933;28;20708;-86
2022/04/05 11:05:14;;;;;;;0.55;0.55;;;;;;;;;;4983662;28;20525;-87
2022/04/05 11:07:52;;;;;;;0.57;0.57;;;;;;;;;;4985515;28;20774;-88
2022/04/05 11:10:22;;;;;;;0.63;0.40;;;;;;;;;;4985126;28;20545;-87
2022/04/05 11:12:48;;;;;;;0.50;0.50;;;;;;;;;;4965998;28;20129;-87
2022/04/05 11:15:14;;;;;;;0.27;0.27;;;;;;;;;;4984538;28;20073;-87
2022/04/05 11:17:42;;;;;;;0.60;0.60;;;;;;;;;;4980096;28;20818;-87
2022/04/05 11:20:09;;;;;;;0.40;0.40;;;;;;;;;;4974996;28;20450;-87
2022/04/05 11:22:36;;;;;;;0.30;0.30;;;;;;;;;;4985917;28;20030;-86
2022/04/05 11:25:07;;;;;;;0.52;0.52;;;;;;;;;;4985876;28;20115;-87
2022/04/05 11:27:45;;;;;;;0.80;0.80;;;;;;;;;;4982594;28;20599;-86
2022/04/05 11:30:25;;;;;;;2.83;1.65;;;;;;;;;;4980996;28;20034;-86
2022/04/05 11:33:09;;;;;;;0.40;0.40;;;;;;;;;;4984781;28;20030;-87
2022/04/05 11:35:38;;;;;;;0.85;0.77;;;;;;;;;;4981955;28;20116;-88
2022/04/05 11:38:05;;;;;;;0.57;0.40;;;;;;;;;;4980074;28;20418;-88
2022/04/05 11:40:31;;;;;;;;;;;;;;;;;;4969295;28;20026;-87
2022/04/05 11:43:01;;;;;;;0.40;0.40;;;;;;;;;;4977909;28;19918;-84
2022/04/05 11:45:28;;;;;;;2.00;0.55;;;;;;;;;;4972464;28;20047;-86
2022/04/05 11:47:54;;;;;;;0.63;0.63;;;;;;;;;;4973001;28;20023;-86
2022/04/05 11:50:20;;;;;;;0.30;0.30;;;;;;;;;;4972638;28;20111;-86
2022/04/05 11:52:47;;;;;;;0.32;0.32;;;;;;;;;;4983846;28;20033;-86
2022/04/05 11:58:11;;;;;;;2.17;1.08;;;;;;;;;;4982420;28;20572;-87
2022/04/05 12:00:54;;;;;;;0.75;0.55;;;;;;;;;;4979733;28;20030;-88
2022/04/05 12:03:20;;;;;;;0.22;0.22;;;;;;;;;;4982618;28;20141;-87
2022/04/05 12:05:47;;;;;;;0.52;0.52;;;;;;;;;;4983221;28;20076;-86
2022/04/05 12:08:14;;;;;;;0.40;0.40;;;;;;;;;;4982314;28;20043;-80
2022/04/05 12:10:39;;;;;;;;;;;;;;;;;;4981403;28;20060;-80
2022/04/05 12:13:06;;;;;;;0.10;0.10;;;;;;;;;;4981901;28;20373;-81
2022/04/05 12:15:33;;;;;;;0.30;0.20;;;;;;;;;;4978251;28;20688;-80
2022/04/05 12:18:22;;;;;;;0.57;0.57;;;;;;;;;;4982838;28;20467;-80
2022/04/05 12:21:08;;;;;;;16.23;1.58;;;;;;;;;;4983040;28;20077;-80
2022/04/05 12:23:36;;;;;;;0.20;0.20;;;;;;;;;;4981987;28;20053;-80
2022/04/05 12:26:06;;;;;;;0.30;0.30;;;;;;;;;;4979070;28;20042;-81
2022/04/05 12:28:32;;;;;;;0.60;0.60;;;;;;;;;;4980242;28;20835;-80
2022/04/05 12:31:12;;;;;;;0.25;0.25;;;;;;;;;;4981206;28;20045;-80
2022/04/05 12:33:39;;;;;;;0.55;0.55;;;;;;;;;;4967544;28;20039;-80
2022/04/05 12:36:07;;;;;;;1.23;1.13;;;;;;;;;;4967871;28;20030;-81
2022/04/05 12:38:33;;;;;;;0.15;0.15;;;;;;;;;;4968597;28;20561;-80
2022/04/05 12:41:01;;;;;;;0.20;0.20;;;;;;;;;;4981205;28;20022;-80
2022/04/05 12:43:27;;;;;;;0.10;0.10;;;;;;;;;;4979101;28;20435;-80
2022/04/05 12:45:54;;;;;;;0.00;0.00;;;;;;;;;;4983948;28;20026;-80
2022/04/05 12:48:21;;;;;;;0.40;0.40;;;;;;;;;;4981591;28;20298;-80
2022/04/05 12:50:51;;;;;;;0.13;0.13;;;;;;;;;;4979319;28;20034;-80
2022/04/05 12:53:27;;;;;;;0.08;0.08;;;;;;;;;;4981429;28;20034;-80
2022/04/05 12:55:57;;;;;;;0.08;0.08;;;;;;;;;;4980076;28;20038;-80
2022/04/05 12:58:48;;;;;;;0.10;0.10;;;;;;;;;;4980237;28;20027;-81
2022/04/05 13:01:23;;;;;;;0.10;0.10;;;;;;;;;;4980672;28;20030;-80
2022/04/05 13:03:49;;;;;;;0.05;0.05;;;;;;;;;;4983350;28;20401;-80
2022/04/05 13:06:25;;;;;;;0.28;0.28;;;;;;;;;;4982110;28;20629;-80
2022/04/05 13:08:53;;;;;;;0.65;0.52;;;;;;;;;;4981087;28;20182;-85
2022/04/05 13:11:25;;;;;;;0.17;0.17;;;;;;;;;;4981765;28;20050;-85
2022/04/05 13:14:01;;;;;;;0.00;0.00;;;;;;;;;;4979003;28;20037;-85
2022/04/05 13:16:28;;;;;;;0.20;0.20;;;;;;;;;;4967324;28;20031;-85
2022/04/05 13:18:54;;;;;;;1.13;0.60;;;;;;;;;;4979855;28;20039;-85
2022/04/05 13:21:21;;;;;;;0.35;0.35;;;;;;;;;;4979299;28;20036;-85
2022/04/05 13:24:03;;;;;;;0.20;0.20;;;;;;;;;;4979696;28;20490;-85
2022/04/05 13:26:29;;;;;;;0.20;0.20;;;;;;;;;;4977923;28;20035;-86
2022/04/05 13:29:07;;;;;;;0.43;0.43;;;;;;;;;;4971477;28;20049;-86
2022/04/05 13:31:33;;;;;;;0.10;0.10;;;;;;;;;;4983982;28;20050;-86
2022/04/05 13:34:00;;;;;;;1.93;0.47;;;;;;;;;;4987729;28;20542;-85
2022/04/05 13:36:26;;;;;;;;;;;;;;;;;;4985204;28;20261;-85
2022/04/05 13:38:52;;;;;;;0.10;0.10;;;;;;;;;;4984626;28;20401;-85
2022/04/05 13:41:18;;;;;;;0.10;0.10;;;;;;;;;;4984909;28;20035;-85
2022/04/05 13:43:44;;;;;;;0.55;0.55;;;;;;;;;;4984274;28;20061;-86
2022/04/05 13:46:10;;;;;;;0.37;0.37;;;;;;;;;;4986830;28;20061;-85
2022/04/05 13:48:36;;;;;;;0.32;0.32;;;;;;;;;;4988640;28;20851;-85
2022/04/05 13:51:03;;;;;;;0.20;0.20;;;;;;;;;;4984356;28;20034;-85
2022/04/05 13:53:29;;;;;;;0.10;0.10;;;;;;;;;;4984736;28;20033;-85
2022/04/05 13:55:57;;;;;;;0.10;0.10;;;;;;;;;;4987152;28;20104;-85
2022/04/05 13:58:23;;;;;;;0.73;0.65;;;;;;;;;;4984843;28;20281;-86
2022/04/05 14:00:49;;;;;;;0.07;0.07;;;;;;;;;;4987113;28;20057;-86
2022/04/05 14:03:17;;;;;;;0.20;0.20;;;;;;;;;;4985602;28;20277;-86
2022/04/05 14:05:43;;;;;;;0.40;0.40;;;;;;;;;;4984033;28;20048;-85
2022/04/05 14:08:10;;;;;;;0.10;0.10;;;;;;;;;;4986523;28;20066;-80
2022/04/05 14:10:36;;;;;;;0.35;0.32;;;;;;;;;;4981943;28;20039;-80
2022/04/05 14:13:02;;;;;;;0.35;0.20;;;;;;;;;;4975971;28;20029;-80
2022/04/05 14:15:28;;;;;;;0.20;0.20;;;;;;;;;;4985138;28;20057;-80
2022/04/05 14:17:54;;;;;;;0.22;0.22;;;;;;;;;;4980036;28;20394;-80
2022/04/05 14:20:20;;;;;;;0.37;0.37;;;;;;;;;;4971171;28;20449;-80
2022/04/05 14:22:46;;;;;;;0.15;0.15;;;;;;;;;;4969734;28;20282;-80
2022/04/05 14:25:14;;;;;;;0.10;0.10;;;;;;;;;;4982959;28;20068;-80
2022/04/05 14:27:40;;;;;;;0.88;0.80;;;;;;;;;;4985384;28;20134;-80
2022/04/05 14:30:06;;;;;;;0.32;0.32;;;;;;;;;;4982919;28;20042;-80
2022/04/05 14:32:33;;;;;;;0.10;0.10;;;;;;;;;;4982508;28;20465;-80
2022/04/05 14:35:01;;;;;;;0.10;0.10;;;;;;;;;;4982196;28;20031;-81
2022/04/05 14:37:27;;;;;;;0.10;0.10;;;;;;;;;;4978915;28;20065;-81
2022/04/05 14:39:53;;;;;;;0.30;0.30;;;;;;;;;;4986526;28;20065;-81
2022/04/05 14:42:19;;;;;;;4.30;0.33;;;;;;;;;;4984458;28;20261;-81
2022/04/05 14:44:45;;;;;;;1.00;0.30;;;;;;;;;;4982761;28;20038;-80
2022/04/05 14:47:11;;;;;;;0.23;0.23;;;;;;;;;;4982922;28;20037;-80
2022/04/05 14:49:38;;;;;;;0.30;0.30;;;;;;;;;;4983247;28;20038;-80
2022/04/05 14:52:04;;;;;;;0.40;0.40;;;;;;;;;;4982987;28;20038;-80